sensor_id;sensor_type;location;lat;lon;timestamp;temperature;humidity
4964;DHT22;2497;47.410;9.740;2022-09-09T00:00:49;16.80;99.90
4964;DHT22;2497;47.410;9.740;2022-09-09T00:03:24;16.70;99.90
4964;DHT22;2497;47.410;9.740;2022-09-09T00:05:58;16.80;99.90
4964;DHT22;2497;47.410;9.740;2022-09-09T00:08:35;16.80;99.90
4964;DHT22;2497;47.410;9.740;2022-09-09T00:11:11;16.80;99.90
4964;DHT22;2497;47.410;9.740;2022-09-09T00:13:43;16.70;99.90
4964;DHT22;2497;47.410;9.740;2022-09-09T00:16:16;16.70;99.90
4964;DHT22;2497;47.410;9.740;2022-09-09T00:18:51;16.60;99.90
4964;DHT22;2497;47.410;9.740;2022-09-09T00:21:22;16.70;99.90
4964;DHT22;2497;47.410;9.740;2022-09-09T00:23:54;16.60;99.90
4964;DHT22;2497;47.410;9.740;2022-09-09T00:26:26;16.50;99.90
4964;DHT22;2497;47.410;9.740;2022-09-09T00:29:05;16.60;99.90
4964;DHT22;2497;47.410;9.740;2022-09-09T00:31:36;16.50;99.90
4964;DHT22;2497;47.410;9.740;2022-09-09T00:34:11;16.60;99.90
4964;DHT22;2497;47.410;9.740;2022-09-09T00:36:40;16.60;99.90
4964;DHT22;2497;47.410;9.740;2022-09-09T00:39:12;16.60;99.90
4964;DHT22;2497;47.410;9.740;2022-09-09T00:41:50;16.60;99.90
4964;DHT22;2497;47.410;9.740;2022-09-09T00:44:30;16.60;99.90
4964;DHT22;2497;47.410;9.740;2022-09-09T00:47:10;16.50;99.90
4964;DHT22;2497;47.410;9.740;2022-09-09T00:49:49;16.50;99.90
4964;DHT22;2497;47.410;9.740;2022-09-09T00:52:30;16.60;99.90
4964;DHT22;2497;47.410;9.740;2022-09-09T00:55:07;16.40;99.90
4964;DHT22;2497;47.410;9.740;2022-09-09T00:57:38;16.30;99.90
4964;DHT22;2497;47.410;9.740;2022-09-09T01:00:25;16.30;99.90
4964;DHT22;2497;47.410;9.740;2022-09-09T01:03:10;16.30;99.90
4964;DHT22;2497;47.410;9.740;2022-09-09T01:05:45;16.30;99.90
4964;DHT22;2497;47.410;9.740;2022-09-09T01:08:36;16.40;99.90
4964;DHT22;2497;47.410;9.740;2022-09-09T01:11:10;16.30;99.90
4964;DHT22;2497;47.410;9.740;2022-09-09T01:13:42;16.30;99.90
4964;DHT22;2497;47.410;9.740;2022-09-09T01:16:13;16.30;99.90
4964;DHT22;2497;47.410;9.740;2022-09-09T01:18:44;16.40;99.90
4964;DHT22;2497;47.410;9.740;2022-09-09T01:21:19;16.40;99.90
4964;DHT22;2497;47.410;9.740;2022-09-09T01:24:03;16.30;99.90
4964;DHT22;2497;47.410;9.740;2022-09-09T01:26:35;16.30;99.90
4964;DHT22;2497;47.410;9.740;2022-09-09T01:29:04;16.30;99.90
4964;DHT22;2497;47.410;9.740;2022-09-09T01:31:38;16.30;99.90
4964;DHT22;2497;47.410;9.740;2022-09-09T01:34:11;16.40;99.90
4964;DHT22;2497;47.410;9.740;2022-09-09T01:36:41;16.40;99.90
4964;DHT22;2497;47.410;9.740;2022-09-09T01:39:10;16.40;99.90
4964;DHT22;2497;47.410;9.740;2022-09-09T01:41:40;16.40;99.90
4964;DHT22;2497;47.410;9.740;2022-09-09T01:44:08;16.30;99.90
4964;DHT22;2497;47.410;9.740;2022-09-09T01:46:36;16.30;99.90
4964;DHT22;2497;47.410;9.740;2022-09-09T01:49:06;16.30;99.90
4964;DHT22;2497;47.410;9.740;2022-09-09T01:51:34;16.30;99.90
4964;DHT22;2497;47.410;9.740;2022-09-09T01:54:03;16.20;99.90
4964;DHT22;2497;47.410;9.740;2022-09-09T01:56:40;16.40;99.90
4964;DHT22;2497;47.410;9.740;2022-09-09T01:59:26;16.50;99.90
4964;DHT22;2497;47.410;9.740;2022-09-09T02:02:08;16.60;99.90
4964;DHT22;2497;47.410;9.740;2022-09-09T02:04:39;16.50;99.90
4964;DHT22;2497;47.410;9.740;2022-09-09T02:07:19;16.50;99.90
4964;DHT22;2497;47.410;9.740;2022-09-09T02:09:52;16.50;99.90
4964;DHT22;2497;47.410;9.740;2022-09-09T02:12:26;16.50;99.90
4964;DHT22;2497;47.410;9.740;2022-09-09T02:14:58;16.60;99.90
4964;DHT22;2497;47.410;9.740;2022-09-09T02:17:30;16.60;99.90
4964;DHT22;2497;47.410;9.740;2022-09-09T02:20:03;16.60;99.90
4964;DHT22;2497;47.410;9.740;2022-09-09T02:22:33;16.60;99.90
4964;DHT22;2497;47.410;9.740;2022-09-09T02:25:08;16.60;99.90
4964;DHT22;2497;47.410;9.740;2022-09-09T02:27:40;16.60;99.90
4964;DHT22;2497;47.410;9.740;2022-09-09T02:30:10;16.50;99.90
4964;DHT22;2497;47.410;9.740;2022-09-09T02:32:38;16.50;99.90
4964;DHT22;2497;47.410;9.740;2022-09-09T02:35:09;16.40;99.90
4964;DHT22;2497;47.410;9.740;2022-09-09T02:37:39;16.30;99.90
4964;DHT22;2497;47.410;9.740;2022-09-09T02:40:09;16.30;99.90
4964;DHT22;2497;47.410;9.740;2022-09-09T02:42:40;16.40;99.90
4964;DHT22;2497;47.410;9.740;2022-09-09T02:45:09;16.40;99.90
4964;DHT22;2497;47.410;9.740;2022-09-09T02:47:41;16.40;99.90
4964;DHT22;2497;47.410;9.740;2022-09-09T02:50:14;16.40;99.90
4964;DHT22;2497;47.410;9.740;2022-09-09T02:52:52;16.40;99.90
4964;DHT22;2497;47.410;9.740;2022-09-09T02:55:27;16.30;99.90
4964;DHT22;2497;47.410;9.740;2022-09-09T02:57:59;16.30;99.90
4964;DHT22;2497;47.410;9.740;2022-09-09T03:00:28;16.20;99.90
4964;DHT22;2497;47.410;9.740;2022-09-09T03:02:56;16.20;99.90
4964;DHT22;2497;47.410;9.740;2022-09-09T03:05:24;16.20;99.90
4964;DHT22;2497;47.410;9.740;2022-09-09T03:07:51;16.10;99.90
4964;DHT22;2497;47.410;9.740;2022-09-09T03:10:19;16.10;99.90
4964;DHT22;2497;47.410;9.740;2022-09-09T03:12:46;16.00;99.90
4964;DHT22;2497;47.410;9.740;2022-09-09T03:15:16;16.00;99.90
4964;DHT22;2497;47.410;9.740;2022-09-09T03:17:43;16.00;99.90
4964;DHT22;2497;47.410;9.740;2022-09-09T03:20:10;16.00;99.90
4964;DHT22;2497;47.410;9.740;2022-09-09T03:22:38;15.80;99.90
4964;DHT22;2497;47.410;9.740;2022-09-09T03:25:07;15.90;99.90
4964;DHT22;2497;47.410;9.740;2022-09-09T03:27:35;16.00;99.90
4964;DHT22;2497;47.410;9.740;2022-09-09T03:30:03;16.00;99.90
4964;DHT22;2497;47.410;9.740;2022-09-09T03:32:32;16.10;99.90
4964;DHT22;2497;47.410;9.740;2022-09-09T03:34:59;16.00;99.90
4964;DHT22;2497;47.410;9.740;2022-09-09T03:37:27;16.00;99.90
4964;DHT22;2497;47.410;9.740;2022-09-09T03:39:54;16.10;99.90
4964;DHT22;2497;47.410;9.740;2022-09-09T03:42:22;16.20;99.90
4964;DHT22;2497;47.410;9.740;2022-09-09T03:44:50;16.10;99.90
4964;DHT22;2497;47.410;9.740;2022-09-09T03:47:18;16.20;99.90
4964;DHT22;2497;47.410;9.740;2022-09-09T03:49:47;16.10;99.90
4964;DHT22;2497;47.410;9.740;2022-09-09T03:52:15;16.20;99.90
4964;DHT22;2497;47.410;9.740;2022-09-09T03:54:44;16.10;99.90
4964;DHT22;2497;47.410;9.740;2022-09-09T03:57:11;16.10;99.90
4964;DHT22;2497;47.410;9.740;2022-09-09T03:59:42;16.20;99.90
4964;DHT22;2497;47.410;9.740;2022-09-09T04:02:10;16.20;99.90
4964;DHT22;2497;47.410;9.740;2022-09-09T04:04:37;16.20;99.90
4964;DHT22;2497;47.410;9.740;2022-09-09T04:07:06;16.20;99.90
4964;DHT22;2497;47.410;9.740;2022-09-09T04:09:34;16.20;99.90
4964;DHT22;2497;47.410;9.740;2022-09-09T04:12:02;16.20;99.90
4964;DHT22;2497;47.410;9.740;2022-09-09T04:14:29;16.20;99.90
4964;DHT22;2497;47.410;9.740;2022-09-09T04:16:57;16.30;99.90
4964;DHT22;2497;47.410;9.740;2022-09-09T04:19:25;16.30;99.90
4964;DHT22;2497;47.410;9.740;2022-09-09T04:21:53;16.30;99.90
4964;DHT22;2497;47.410;9.740;2022-09-09T04:24:22;16.30;99.90
4964;DHT22;2497;47.410;9.740;2022-09-09T04:26:50;16.30;99.90
4964;DHT22;2497;47.410;9.740;2022-09-09T04:29:18;16.30;99.90
4964;DHT22;2497;47.410;9.740;2022-09-09T04:31:45;16.30;99.90
4964;DHT22;2497;47.410;9.740;2022-09-09T04:34:13;16.30;99.90
4964;DHT22;2497;47.410;9.740;2022-09-09T04:36:40;16.30;99.90
4964;DHT22;2497;47.410;9.740;2022-09-09T04:39:08;16.30;99.90
4964;DHT22;2497;47.410;9.740;2022-09-09T04:41:38;16.40;99.90
4964;DHT22;2497;47.410;9.740;2022-09-09T04:44:06;16.40;99.90
4964;DHT22;2497;47.410;9.740;2022-09-09T04:46:35;16.40;99.90
4964;DHT22;2497;47.410;9.740;2022-09-09T04:49:02;16.50;99.90
4964;DHT22;2497;47.410;9.740;2022-09-09T04:51:31;16.40;99.90
4964;DHT22;2497;47.410;9.740;2022-09-09T04:53:58;16.40;99.90
4964;DHT22;2497;47.410;9.740;2022-09-09T04:56:26;16.30;99.90
4964;DHT22;2497;47.410;9.740;2022-09-09T04:58:55;16.50;99.90
4964;DHT22;2497;47.410;9.740;2022-09-09T05:01:22;16.40;99.90
4964;DHT22;2497;47.410;9.740;2022-09-09T05:03:50;16.40;99.90
4964;DHT22;2497;47.410;9.740;2022-09-09T05:06:20;16.50;99.90
4964;DHT22;2497;47.410;9.740;2022-09-09T05:08:48;16.50;99.90
4964;DHT22;2497;47.410;9.740;2022-09-09T05:11:16;16.50;99.90
4964;DHT22;2497;47.410;9.740;2022-09-09T05:13:44;16.50;99.90
4964;DHT22;2497;47.410;9.740;2022-09-09T05:16:14;16.60;99.90
4964;DHT22;2497;47.410;9.740;2022-09-09T05:18:41;16.60;99.90
4964;DHT22;2497;47.410;9.740;2022-09-09T05:21:10;16.60;99.90
4964;DHT22;2497;47.410;9.740;2022-09-09T05:23:38;16.60;99.90
4964;DHT22;2497;47.410;9.740;2022-09-09T05:26:06;16.60;99.90
4964;DHT22;2497;47.410;9.740;2022-09-09T05:28:34;16.70;99.90
4964;DHT22;2497;47.410;9.740;2022-09-09T05:31:04;16.70;99.90
4964;DHT22;2497;47.410;9.740;2022-09-09T05:33:35;16.70;99.90
4964;DHT22;2497;47.410;9.740;2022-09-09T05:36:05;16.70;99.90
4964;DHT22;2497;47.410;9.740;2022-09-09T05:38:34;16.80;99.90
4964;DHT22;2497;47.410;9.740;2022-09-09T05:41:03;16.80;99.90
4964;DHT22;2497;47.410;9.740;2022-09-09T05:43:30;16.80;99.90
4964;DHT22;2497;47.410;9.740;2022-09-09T05:46:03;16.70;99.90
4964;DHT22;2497;47.410;9.740;2022-09-09T05:48:32;16.70;99.90
4964;DHT22;2497;47.410;9.740;2022-09-09T05:51:01;16.70;99.90
4964;DHT22;2497;47.410;9.740;2022-09-09T05:53:29;16.60;99.90
4964;DHT22;2497;47.410;9.740;2022-09-09T05:56:01;16.70;99.90
4964;DHT22;2497;47.410;9.740;2022-09-09T05:58:30;16.70;99.90
4964;DHT22;2497;47.410;9.740;2022-09-09T06:01:02;16.70;99.90
4964;DHT22;2497;47.410;9.740;2022-09-09T06:03:33;16.80;99.90
4964;DHT22;2497;47.410;9.740;2022-09-09T06:06:04;16.80;99.90
4964;DHT22;2497;47.410;9.740;2022-09-09T06:08:32;16.80;99.90
4964;DHT22;2497;47.410;9.740;2022-09-09T06:11:03;16.90;99.90
4964;DHT22;2497;47.410;9.740;2022-09-09T06:13:31;16.80;99.90
4964;DHT22;2497;47.410;9.740;2022-09-09T06:15:59;16.80;99.90
4964;DHT22;2497;47.410;9.740;2022-09-09T06:18:27;16.90;99.90
4964;DHT22;2497;47.410;9.740;2022-09-09T06:20:56;16.90;99.90
4964;DHT22;2497;47.410;9.740;2022-09-09T06:23:26;16.90;99.90
4964;DHT22;2497;47.410;9.740;2022-09-09T06:26:02;16.80;99.90
4964;DHT22;2497;47.410;9.740;2022-09-09T06:28:31;16.80;99.90
4964;DHT22;2497;47.410;9.740;2022-09-09T06:30:58;16.80;99.90
4964;DHT22;2497;47.410;9.740;2022-09-09T06:33:26;16.80;99.90
4964;DHT22;2497;47.410;9.740;2022-09-09T06:35:53;16.80;99.90
4964;DHT22;2497;47.410;9.740;2022-09-09T06:38:23;16.80;99.90
4964;DHT22;2497;47.410;9.740;2022-09-09T06:40:53;16.80;99.90
4964;DHT22;2497;47.410;9.740;2022-09-09T06:43:21;16.80;99.90
4964;DHT22;2497;47.410;9.740;2022-09-09T06:45:56;16.80;99.90
4964;DHT22;2497;47.410;9.740;2022-09-09T06:48:23;16.80;99.90
4964;DHT22;2497;47.410;9.740;2022-09-09T06:50:52;16.80;99.90
4964;DHT22;2497;47.410;9.740;2022-09-09T06:53:27;16.90;99.90
4964;DHT22;2497;47.410;9.740;2022-09-09T06:55:56;17.00;99.90
4964;DHT22;2497;47.410;9.740;2022-09-09T06:58:23;17.00;99.90
4964;DHT22;2497;47.410;9.740;2022-09-09T07:00:50;17.00;99.90
4964;DHT22;2497;47.410;9.740;2022-09-09T07:03:18;16.90;99.90
4964;DHT22;2497;47.410;9.740;2022-09-09T07:05:54;16.90;99.90
4964;DHT22;2497;47.410;9.740;2022-09-09T07:08:21;16.70;99.90
4964;DHT22;2497;47.410;9.740;2022-09-09T07:10:50;16.60;99.90
4964;DHT22;2497;47.410;9.740;2022-09-09T07:13:23;16.60;99.90
4964;DHT22;2497;47.410;9.740;2022-09-09T07:15:51;16.60;99.90
4964;DHT22;2497;47.410;9.740;2022-09-09T07:18:19;16.60;99.90
4964;DHT22;2497;47.410;9.740;2022-09-09T07:20:52;16.60;99.90
4964;DHT22;2497;47.410;9.740;2022-09-09T07:23:20;16.50;99.90
4964;DHT22;2497;47.410;9.740;2022-09-09T07:25:47;16.60;99.90
4964;DHT22;2497;47.410;9.740;2022-09-09T07:28:15;16.60;99.90
4964;DHT22;2497;47.410;9.740;2022-09-09T07:30:53;16.70;99.90
4964;DHT22;2497;47.410;9.740;2022-09-09T07:33:20;16.60;99.90
4964;DHT22;2497;47.410;9.740;2022-09-09T07:35:48;16.60;99.90
4964;DHT22;2497;47.410;9.740;2022-09-09T07:38:15;16.60;99.90
4964;DHT22;2497;47.410;9.740;2022-09-09T07:40:43;16.50;99.90
4964;DHT22;2497;47.410;9.740;2022-09-09T07:43:11;16.60;99.90
4964;DHT22;2497;47.410;9.740;2022-09-09T07:45:39;16.60;99.90
4964;DHT22;2497;47.410;9.740;2022-09-09T07:48:09;16.60;99.90
4964;DHT22;2497;47.410;9.740;2022-09-09T07:50:36;16.60;99.90
4964;DHT22;2497;47.410;9.740;2022-09-09T07:53:05;16.60;99.90
4964;DHT22;2497;47.410;9.740;2022-09-09T07:55:32;16.60;99.90
4964;DHT22;2497;47.410;9.740;2022-09-09T07:57:59;16.70;99.90
4964;DHT22;2497;47.410;9.740;2022-09-09T08:00:27;16.70;99.90
4964;DHT22;2497;47.410;9.740;2022-09-09T08:02:54;16.70;99.90
4964;DHT22;2497;47.410;9.740;2022-09-09T08:05:26;16.70;99.90
4964;DHT22;2497;47.410;9.740;2022-09-09T08:07:53;16.70;99.90
4964;DHT22;2497;47.410;9.740;2022-09-09T08:10:21;16.80;99.90
4964;DHT22;2497;47.410;9.740;2022-09-09T08:12:49;16.80;99.90
4964;DHT22;2497;47.410;9.740;2022-09-09T08:15:18;16.70;99.90
4964;DHT22;2497;47.410;9.740;2022-09-09T08:17:45;16.80;99.90
4964;DHT22;2497;47.410;9.740;2022-09-09T08:20:13;16.70;99.90
4964;DHT22;2497;47.410;9.740;2022-09-09T08:22:42;16.70;99.90
4964;DHT22;2497;47.410;9.740;2022-09-09T08:25:10;16.70;99.90
4964;DHT22;2497;47.410;9.740;2022-09-09T08:27:37;16.70;99.90
4964;DHT22;2497;47.410;9.740;2022-09-09T08:30:06;16.70;99.90
4964;DHT22;2497;47.410;9.740;2022-09-09T08:32:34;16.80;99.90
4964;DHT22;2497;47.410;9.740;2022-09-09T08:35:03;16.80;99.90
4964;DHT22;2497;47.410;9.740;2022-09-09T08:37:31;16.70;99.90
4964;DHT22;2497;47.410;9.740;2022-09-09T08:40:00;16.80;99.90
4964;DHT22;2497;47.410;9.740;2022-09-09T08:42:35;16.80;99.90
4964;DHT22;2497;47.410;9.740;2022-09-09T08:45:28;16.90;99.90
4964;DHT22;2497;47.410;9.740;2022-09-09T08:50:50;16.70;99.90
4964;DHT22;2497;47.410;9.740;2022-09-09T08:53:19;16.50;99.90
4964;DHT22;2497;47.410;9.740;2022-09-09T08:55:51;16.40;99.90
4964;DHT22;2497;47.410;9.740;2022-09-09T08:58:22;16.30;99.90
4964;DHT22;2497;47.410;9.740;2022-09-09T09:01:02;16.20;99.90
4964;DHT22;2497;47.410;9.740;2022-09-09T09:03:41;16.10;99.90
4964;DHT22;2497;47.410;9.740;2022-09-09T09:06:20;16.10;99.90
4964;DHT22;2497;47.410;9.740;2022-09-09T09:08:58;16.10;99.90
4964;DHT22;2497;47.410;9.740;2022-09-09T09:11:34;16.00;99.90
4964;DHT22;2497;47.410;9.740;2022-09-09T09:14:05;15.90;99.90
4964;DHT22;2497;47.410;9.740;2022-09-09T09:16:40;15.90;99.90
4964;DHT22;2497;47.410;9.740;2022-09-09T09:19:14;16.00;99.90
4964;DHT22;2497;47.410;9.740;2022-09-09T09:21:43;16.00;99.90
4964;DHT22;2497;47.410;9.740;2022-09-09T09:24:16;16.00;99.90
4964;DHT22;2497;47.410;9.740;2022-09-09T09:26:47;15.80;99.90
4964;DHT22;2497;47.410;9.740;2022-09-09T09:29:17;15.70;99.90
4964;DHT22;2497;47.410;9.740;2022-09-09T09:31:47;15.70;99.90
4964;DHT22;2497;47.410;9.740;2022-09-09T09:34:16;15.60;99.90
4964;DHT22;2497;47.410;9.740;2022-09-09T09:36:45;15.50;99.90
4964;DHT22;2497;47.410;9.740;2022-09-09T09:39:23;15.50;99.90
4964;DHT22;2497;47.410;9.740;2022-09-09T09:41:53;15.50;99.90
4964;DHT22;2497;47.410;9.740;2022-09-09T09:44:24;15.40;99.90
4964;DHT22;2497;47.410;9.740;2022-09-09T09:46:51;15.40;99.90
4964;DHT22;2497;47.410;9.740;2022-09-09T09:49:19;15.50;99.90
4964;DHT22;2497;47.410;9.740;2022-09-09T09:51:47;15.50;99.90
4964;DHT22;2497;47.410;9.740;2022-09-09T09:54:21;15.40;99.90
4964;DHT22;2497;47.410;9.740;2022-09-09T09:56:50;15.40;99.90
4964;DHT22;2497;47.410;9.740;2022-09-09T09:59:32;15.40;99.90
4964;DHT22;2497;47.410;9.740;2022-09-09T10:02:17;15.30;99.90
4964;DHT22;2497;47.410;9.740;2022-09-09T10:04:44;15.30;99.90
4964;DHT22;2497;47.410;9.740;2022-09-09T10:07:13;15.30;99.90
4964;DHT22;2497;47.410;9.740;2022-09-09T10:09:44;15.40;99.90
4964;DHT22;2497;47.410;9.740;2022-09-09T10:12:20;15.30;99.90
4964;DHT22;2497;47.410;9.740;2022-09-09T10:15:01;15.40;99.90
4964;DHT22;2497;47.410;9.740;2022-09-09T10:17:39;15.40;99.90
4964;DHT22;2497;47.410;9.740;2022-09-09T10:20:20;15.40;99.90
4964;DHT22;2497;47.410;9.740;2022-09-09T10:22:52;15.60;99.90
4964;DHT22;2497;47.410;9.740;2022-09-09T10:25:34;15.90;99.90
4964;DHT22;2497;47.410;9.740;2022-09-09T10:31:14;16.20;99.90
4964;DHT22;2497;47.410;9.740;2022-09-09T10:33:50;16.20;99.90
4964;DHT22;2497;47.410;9.740;2022-09-09T10:36:22;16.20;99.90
4964;DHT22;2497;47.410;9.740;2022-09-09T10:38:57;16.20;99.90
4964;DHT22;2497;47.410;9.740;2022-09-09T10:41:40;16.30;99.90
4964;DHT22;2497;47.410;9.740;2022-09-09T10:44:48;16.30;99.90
4964;DHT22;2497;47.410;9.740;2022-09-09T10:47:40;16.20;99.90
4964;DHT22;2497;47.410;9.740;2022-09-09T10:50:27;16.30;99.90
4964;DHT22;2497;47.410;9.740;2022-09-09T10:53:02;16.30;99.90
4964;DHT22;2497;47.410;9.740;2022-09-09T10:55:38;16.30;99.90
4964;DHT22;2497;47.410;9.740;2022-09-09T10:58:12;16.40;99.90
4964;DHT22;2497;47.410;9.740;2022-09-09T11:00:42;16.40;99.90
4964;DHT22;2497;47.410;9.740;2022-09-09T11:03:15;16.50;99.90
4964;DHT22;2497;47.410;9.740;2022-09-09T11:05:47;16.60;99.90
4964;DHT22;2497;47.410;9.740;2022-09-09T11:08:18;16.60;99.90
4964;DHT22;2497;47.410;9.740;2022-09-09T11:10:51;16.80;99.90
4964;DHT22;2497;47.410;9.740;2022-09-09T11:13:26;16.80;99.90
4964;DHT22;2497;47.410;9.740;2022-09-09T11:16:00;17.00;99.90
4964;DHT22;2497;47.410;9.740;2022-09-09T11:18:35;17.10;99.90
4964;DHT22;2497;47.410;9.740;2022-09-09T11:21:17;17.20;99.90
4964;DHT22;2497;47.410;9.740;2022-09-09T11:23:52;17.30;99.90
4964;DHT22;2497;47.410;9.740;2022-09-09T11:26:27;17.50;99.90
4964;DHT22;2497;47.410;9.740;2022-09-09T11:29:06;17.60;99.90
4964;DHT22;2497;47.410;9.740;2022-09-09T11:31:46;17.80;99.90
4964;DHT22;2497;47.410;9.740;2022-09-09T11:34:47;17.90;99.90
4964;DHT22;2497;47.410;9.740;2022-09-09T11:37:29;18.00;99.90
4964;DHT22;2497;47.410;9.740;2022-09-09T11:40:14;18.50;99.90
4964;DHT22;2497;47.410;9.740;2022-09-09T11:42:44;18.80;99.90
4964;DHT22;2497;47.410;9.740;2022-09-09T11:45:22;19.30;99.90
4964;DHT22;2497;47.410;9.740;2022-09-09T11:47:54;19.80;99.90
4964;DHT22;2497;47.410;9.740;2022-09-09T11:50:32;20.20;99.90
4964;DHT22;2497;47.410;9.740;2022-09-09T11:53:22;19.90;99.90
4964;DHT22;2497;47.410;9.740;2022-09-09T11:56:09;19.30;99.90
4964;DHT22;2497;47.410;9.740;2022-09-09T11:58:43;18.80;99.90
4964;DHT22;2497;47.410;9.740;2022-09-09T12:01:42;18.40;99.90
4964;DHT22;2497;47.410;9.740;2022-09-09T12:04:32;18.20;99.90
4964;DHT22;2497;47.410;9.740;2022-09-09T12:07:03;18.10;99.90
4964;DHT22;2497;47.410;9.740;2022-09-09T12:09:41;18.00;99.90
4964;DHT22;2497;47.410;9.740;2022-09-09T12:12:28;18.10;99.90
4964;DHT22;2497;47.410;9.740;2022-09-09T12:14:59;18.10;99.90
4964;DHT22;2497;47.410;9.740;2022-09-09T12:17:29;18.10;99.90
4964;DHT22;2497;47.410;9.740;2022-09-09T12:20:08;18.20;99.90
4964;DHT22;2497;47.410;9.740;2022-09-09T12:22:46;18.30;99.90
4964;DHT22;2497;47.410;9.740;2022-09-09T12:25:23;18.50;99.90
4964;DHT22;2497;47.410;9.740;2022-09-09T12:28:04;18.60;99.90
4964;DHT22;2497;47.410;9.740;2022-09-09T12:30:41;18.50;99.90
4964;DHT22;2497;47.410;9.740;2022-09-09T12:33:12;18.40;99.90
4964;DHT22;2497;47.410;9.740;2022-09-09T12:35:43;18.40;99.90
4964;DHT22;2497;47.410;9.740;2022-09-09T12:38:16;18.60;99.90
4964;DHT22;2497;47.410;9.740;2022-09-09T12:40:54;18.80;99.90
4964;DHT22;2497;47.410;9.740;2022-09-09T12:43:23;19.20;99.90
4964;DHT22;2497;47.410;9.740;2022-09-09T12:45:53;19.50;99.90
4964;DHT22;2497;47.410;9.740;2022-09-09T12:48:29;19.40;99.90
4964;DHT22;2497;47.410;9.740;2022-09-09T12:50:58;19.40;99.90
4964;DHT22;2497;47.410;9.740;2022-09-09T12:53:30;19.30;99.90
4964;DHT22;2497;47.410;9.740;2022-09-09T12:56:01;19.40;99.90
4964;DHT22;2497;47.410;9.740;2022-09-09T12:58:30;19.50;99.90
4964;DHT22;2497;47.410;9.740;2022-09-09T13:01:01;19.80;99.90
4964;DHT22;2497;47.410;9.740;2022-09-09T13:03:31;20.20;99.90
4964;DHT22;2497;47.410;9.740;2022-09-09T13:06:10;20.10;99.90
4964;DHT22;2497;47.410;9.740;2022-09-09T13:08:39;19.90;99.90
4964;DHT22;2497;47.410;9.740;2022-09-09T13:11:10;20.00;99.90
4964;DHT22;2497;47.410;9.740;2022-09-09T13:13:39;20.10;99.90
4964;DHT22;2497;47.410;9.740;2022-09-09T13:16:19;20.00;99.90
4964;DHT22;2497;47.410;9.740;2022-09-09T13:18:47;19.90;99.90
4964;DHT22;2497;47.410;9.740;2022-09-09T13:21:15;19.80;99.90
4964;DHT22;2497;47.410;9.740;2022-09-09T13:23:49;19.90;99.90
4964;DHT22;2497;47.410;9.740;2022-09-09T13:26:22;20.00;99.90
4964;DHT22;2497;47.410;9.740;2022-09-09T13:28:49;20.00;99.90
4964;DHT22;2497;47.410;9.740;2022-09-09T13:31:23;20.30;99.90
4964;DHT22;2497;47.410;9.740;2022-09-09T13:33:53;20.80;99.90
4964;DHT22;2497;47.410;9.740;2022-09-09T13:36:29;20.90;99.90
4964;DHT22;2497;47.410;9.740;2022-09-09T13:39:00;21.10;99.90
4964;DHT22;2497;47.410;9.740;2022-09-09T13:41:31;21.20;99.90
4964;DHT22;2497;47.410;9.740;2022-09-09T13:44:00;21.30;99.90
4964;DHT22;2497;47.410;9.740;2022-09-09T13:46:34;21.40;99.90
4964;DHT22;2497;47.410;9.740;2022-09-09T13:49:18;21.50;99.90
4964;DHT22;2497;47.410;9.740;2022-09-09T13:51:47;21.30;99.90
4964;DHT22;2497;47.410;9.740;2022-09-09T13:54:19;21.50;99.90
4964;DHT22;2497;47.410;9.740;2022-09-09T13:56:48;21.40;99.90
4964;DHT22;2497;47.410;9.740;2022-09-09T13:59:18;21.50;99.90
4964;DHT22;2497;47.410;9.740;2022-09-09T14:01:45;21.50;99.90
4964;DHT22;2497;47.410;9.740;2022-09-09T14:04:13;21.40;99.90
4964;DHT22;2497;47.410;9.740;2022-09-09T14:06:42;21.60;99.90
4964;DHT22;2497;47.410;9.740;2022-09-09T14:09:12;21.50;99.90
4964;DHT22;2497;47.410;9.740;2022-09-09T14:11:42;21.50;99.90
4964;DHT22;2497;47.410;9.740;2022-09-09T14:14:09;21.40;99.90
4964;DHT22;2497;47.410;9.740;2022-09-09T14:16:36;21.40;99.90
4964;DHT22;2497;47.410;9.740;2022-09-09T14:19:04;21.10;99.90
4964;DHT22;2497;47.410;9.740;2022-09-09T14:21:32;21.00;99.90
4964;DHT22;2497;47.410;9.740;2022-09-09T14:23:59;20.70;99.90
4964;DHT22;2497;47.410;9.740;2022-09-09T14:26:29;20.50;99.90
4964;DHT22;2497;47.410;9.740;2022-09-09T14:28:58;20.60;99.90
4964;DHT22;2497;47.410;9.740;2022-09-09T14:31:26;20.70;99.90
4964;DHT22;2497;47.410;9.740;2022-09-09T14:33:53;20.60;99.90
4964;DHT22;2497;47.410;9.740;2022-09-09T14:36:21;20.60;99.90
4964;DHT22;2497;47.410;9.740;2022-09-09T14:38:50;20.60;99.90
4964;DHT22;2497;47.410;9.740;2022-09-09T14:41:19;20.60;99.90
4964;DHT22;2497;47.410;9.740;2022-09-09T14:43:48;20.60;99.90
4964;DHT22;2497;47.410;9.740;2022-09-09T14:46:18;20.50;99.90
4964;DHT22;2497;47.410;9.740;2022-09-09T14:48:46;20.60;99.90
4964;DHT22;2497;47.410;9.740;2022-09-09T14:51:15;20.30;99.90
4964;DHT22;2497;47.410;9.740;2022-09-09T14:53:43;20.40;99.90
4964;DHT22;2497;47.410;9.740;2022-09-09T14:56:13;20.50;99.90
4964;DHT22;2497;47.410;9.740;2022-09-09T14:58:41;20.50;99.90
4964;DHT22;2497;47.410;9.740;2022-09-09T15:01:10;20.60;99.90
4964;DHT22;2497;47.410;9.740;2022-09-09T15:03:41;20.70;99.90
4964;DHT22;2497;47.410;9.740;2022-09-09T15:06:10;20.90;99.90
4964;DHT22;2497;47.410;9.740;2022-09-09T15:08:40;21.00;99.90
4964;DHT22;2497;47.410;9.740;2022-09-09T15:11:08;21.00;99.90
4964;DHT22;2497;47.410;9.740;2022-09-09T15:13:36;21.10;99.90
4964;DHT22;2497;47.410;9.740;2022-09-09T15:16:04;21.10;99.90
4964;DHT22;2497;47.410;9.740;2022-09-09T15:18:32;21.20;99.90
4964;DHT22;2497;47.410;9.740;2022-09-09T15:21:01;21.30;99.90
4964;DHT22;2497;47.410;9.740;2022-09-09T15:23:31;21.10;99.90
4964;DHT22;2497;47.410;9.740;2022-09-09T15:25:59;21.10;99.90
4964;DHT22;2497;47.410;9.740;2022-09-09T15:28:26;20.90;99.90
4964;DHT22;2497;47.410;9.740;2022-09-09T15:30:54;20.90;99.90
4964;DHT22;2497;47.410;9.740;2022-09-09T15:33:22;20.90;99.90
4964;DHT22;2497;47.410;9.740;2022-09-09T15:35:49;21.00;99.90
4964;DHT22;2497;47.410;9.740;2022-09-09T15:38:18;20.90;99.90
4964;DHT22;2497;47.410;9.740;2022-09-09T15:40:53;20.70;99.90
4964;DHT22;2497;47.410;9.740;2022-09-09T15:43:21;20.60;99.90
4964;DHT22;2497;47.410;9.740;2022-09-09T15:45:54;20.70;99.90
4964;DHT22;2497;47.410;9.740;2022-09-09T15:48:30;20.70;99.90
4964;DHT22;2497;47.410;9.740;2022-09-09T15:51:02;20.90;99.90
4964;DHT22;2497;47.410;9.740;2022-09-09T15:53:31;20.90;99.90
4964;DHT22;2497;47.410;9.740;2022-09-09T15:55:59;20.80;99.90
4964;DHT22;2497;47.410;9.740;2022-09-09T15:58:29;20.70;99.90
4964;DHT22;2497;47.410;9.740;2022-09-09T16:01:02;20.70;99.90
4964;DHT22;2497;47.410;9.740;2022-09-09T16:03:30;20.70;99.90
4964;DHT22;2497;47.410;9.740;2022-09-09T16:05:57;20.60;99.90
4964;DHT22;2497;47.410;9.740;2022-09-09T16:08:30;20.60;99.90
4964;DHT22;2497;47.410;9.740;2022-09-09T16:11:05;20.70;99.90
4964;DHT22;2497;47.410;9.740;2022-09-09T16:13:33;20.90;99.90
4964;DHT22;2497;47.410;9.740;2022-09-09T16:16:02;21.20;99.90
4964;DHT22;2497;47.410;9.740;2022-09-09T16:18:34;21.60;99.90
4964;DHT22;2497;47.410;9.740;2022-09-09T16:21:02;21.80;99.90
4964;DHT22;2497;47.410;9.740;2022-09-09T16:23:32;22.10;99.90
4964;DHT22;2497;47.410;9.740;2022-09-09T16:26:00;22.10;99.90
4964;DHT22;2497;47.410;9.740;2022-09-09T16:28:28;21.90;99.90
4964;DHT22;2497;47.410;9.740;2022-09-09T16:30:56;21.50;99.90
4964;DHT22;2497;47.410;9.740;2022-09-09T16:33:24;21.00;99.90
4964;DHT22;2497;47.410;9.740;2022-09-09T16:35:52;20.90;99.90